Time;durP1;ratioP1;P1;durP2;ratioP2;P2;SDS_P1;SDS_P2;PMS_P1;PMS_P2;Temp;Humidity;BMP_temperature;BMP_pressure;BME280_temperature;BME280_humidity;BME280_pressure;Samples;Min_cycle;Max_cycle;Signal;HPM_P1;HPM_P2
2023/07/02 00:00:06;;;;;;;3.05;2.03;;;;;;;;;;5065337;28;42104;-23
2023/07/02 00:02:36;;;;;;;4.18;2.13;;;;;;;;;;5066569;28;40807;-23
2023/07/02 00:05:06;;;;;;;4.07;2.13;;;;;;;;;;5067264;28;43384;-24
2023/07/02 00:07:36;;;;;;;3.95;2.05;;;;;;;;;;5065765;28;46192;-24
2023/07/02 00:10:05;;;;;;;3.35;2.10;;;;;;;;;;5066279;28;40264;-23
2023/07/02 00:12:33;;;;;;;3.03;2.10;;;;;;;;;;5065729;28;43815;-32
2023/07/02 00:15:01;;;;;;;4.03;1.95;;;;;;;;;;5066893;28;40122;-24
2023/07/02 00:17:29;;;;;;;3.80;2.47;;;;;;;;;;5065856;28;42558;-24
2023/07/02 00:19:57;;;;;;;4.70;1.98;;;;;;;;;;5066696;28;43306;-24
2023/07/02 00:22:26;;;;;;;4.78;1.92;;;;;;;;;;5065461;28;40930;-24
2023/07/02 00:24:55;;;;;;;3.50;2.38;;;;;;;;;;5066027;28;42759;-23
2023/07/02 00:27:23;;;;;;;3.83;2.35;;;;;;;;;;5065880;28;43534;-24
2023/07/02 00:29:51;;;;;;;4.28;2.38;;;;;;;;;;5064212;28;40374;-23
2023/07/02 00:32:19;;;;;;;4.78;2.80;;;;;;;;;;5066122;28;43396;-23
2023/07/02 00:34:47;;;;;;;6.90;2.95;;;;;;;;;;5066314;28;39983;-23
2023/07/02 00:37:15;;;;;;;5.53;2.30;;;;;;;;;;5065844;28;43360;-23
2023/07/02 00:39:45;;;;;;;9.82;3.30;;;;;;;;;;5066342;28;43167;-23
2023/07/02 00:42:13;;;;;;;5.15;2.40;;;;;;;;;;5066088;28;40431;-24
2023/07/02 00:44:42;;;;;;;6.20;2.97;;;;;;;;;;5064453;28;42739;-24
2023/07/02 00:47:10;;;;;;;6.68;3.00;;;;;;;;;;5065690;28;43187;-25
2023/07/02 00:49:38;;;;;;;7.60;2.75;;;;;;;;;;5059132;28;38791;-26
2023/07/02 00:52:06;;;;;;;7.60;3.53;;;;;;;;;;5064495;28;42736;-26
2023/07/02 00:54:35;;;;;;;5.93;3.15;;;;;;;;;;5064319;28;42029;-24
2023/07/02 00:57:05;;;;;;;5.13;2.88;;;;;;;;;;5066304;28;43264;-25
2023/07/02 00:59:35;;;;;;;8.85;3.45;;;;;;;;;;5062744;28;42186;-25
2023/07/02 01:02:04;;;;;;;6.03;3.20;;;;;;;;;;5066066;28;40277;-27
2023/07/02 01:04:33;;;;;;;13.50;4.60;;;;;;;;;;5064691;28;42584;-25
2023/07/02 01:07:01;;;;;;;7.95;3.97;;;;;;;;;;5065447;28;43316;-26
2023/07/02 01:09:29;;;;;;;10.20;4.00;;;;;;;;;;5065133;28;40753;-24
2023/07/02 01:11:58;;;;;;;10.27;4.00;;;;;;;;;;5065764;28;43740;-24
2023/07/02 01:14:29;;;;;;;8.82;4.50;;;;;;;;;;5050779;28;43461;-24
2023/07/02 01:16:57;;;;;;;10.00;4.32;;;;;;;;;;5064699;28;39367;-26
2023/07/02 01:19:33;;;;;;;10.02;4.07;;;;;;;;;;5064775;28;43170;-24
2023/07/02 01:22:01;;;;;;;10.88;4.30;;;;;;;;;;5064365;28;39219;-27
2023/07/02 01:24:29;;;;;;;8.20;3.85;;;;;;;;;;5063153;28;42393;-27
2023/07/02 01:27:01;;;;;;;7.40;3.85;;;;;;;;;;5063604;28;42413;-25
2023/07/02 01:29:30;;;;;;;9.57;4.55;;;;;;;;;;5062794;28;39116;-25
2023/07/02 01:31:58;;;;;;;10.73;5.28;;;;;;;;;;5063957;28;42291;-25
2023/07/02 01:34:26;;;;;;;8.85;4.55;;;;;;;;;;5063734;28;44468;-25
2023/07/02 01:36:55;;;;;;;7.53;4.75;;;;;;;;;;5065729;28;41174;-26
2023/07/02 01:39:23;;;;;;;9.25;4.65;;;;;;;;;;5064019;28;44329;-26
2023/07/02 01:41:51;;;;;;;11.02;4.78;;;;;;;;;;5065420;28;40154;-26
2023/07/02 01:44:19;;;;;;;8.32;4.68;;;;;;;;;;5064144;28;42525;-25
2023/07/02 01:46:48;;;;;;;7.00;4.20;;;;;;;;;;5064870;28;43631;-25
2023/07/02 01:49:17;;;;;;;11.43;5.25;;;;;;;;;;5064471;28;40075;-25
2023/07/02 01:51:45;;;;;;;7.47;4.63;;;;;;;;;;5061977;28;43376;-26
2023/07/02 01:54:15;;;;;;;9.32;5.15;;;;;;;;;;5050295;28;43533;-25
2023/07/02 01:56:43;;;;;;;11.68;4.97;;;;;;;;;;5059320;28;39845;-29
2023/07/02 01:59:11;;;;;;;10.10;5.28;;;;;;;;;;5064884;28;43720;-27
2023/07/02 02:01:40;;;;;;;10.80;4.57;;;;;;;;;;5062449;28;41111;-25
2023/07/02 02:04:08;;;;;;;8.75;5.22;;;;;;;;;;5064878;28;42495;-26
2023/07/02 02:06:37;;;;;;;9.50;4.82;;;;;;;;;;5063932;28;44161;-26
2023/07/02 02:09:05;;;;;;;8.85;4.60;;;;;;;;;;5062708;28;40099;-26
2023/07/02 02:11:35;;;;;;;11.10;5.18;;;;;;;;;;5065082;28;42790;-25
2023/07/02 02:14:03;;;;;;;10.70;5.18;;;;;;;;;;5065420;28;44410;-26
2023/07/02 02:16:33;;;;;;;9.25;4.82;;;;;;;;;;5062626;28;40008;-25
2023/07/02 02:19:03;;;;;;;10.77;4.90;;;;;;;;;;5060321;28;42786;-25
2023/07/02 02:21:31;;;;;;;10.00;5.80;;;;;;;;;;5062550;28;43317;-27
2023/07/02 02:23:59;;;;;;;10.45;5.00;;;;;;;;;;5064061;28;42756;-25
2023/07/02 02:26:27;;;;;;;11.43;5.35;;;;;;;;;;5064398;28;44016;-25
2023/07/02 02:28:57;;;;;;;10.98;5.75;;;;;;;;;;5064415;28;40623;-28
2023/07/02 02:31:25;;;;;;;13.65;6.00;;;;;;;;;;5064455;28;43542;-26
2023/07/02 02:33:53;;;;;;;12.13;5.03;;;;;;;;;;5080337;28;41885;-27
2023/07/02 02:36:21;;;;;;;10.90;4.95;;;;;;;;;;5097989;28;40122;-25
2023/07/02 02:38:49;;;;;;;14.73;6.30;;;;;;;;;;5066081;28;41823;-23
2023/07/02 02:41:18;;;;;;;11.55;5.60;;;;;;;;;;5066088;28;43699;-23
2023/07/02 02:43:50;;;;;;;12.80;6.00;;;;;;;;;;5065269;28;39961;-23
2023/07/02 02:46:24;;;;;;;11.57;5.90;;;;;;;;;;5057135;28;43700;-23
2023/07/02 02:48:53;;;;;;;9.18;5.63;;;;;;;;;;5066502;28;39415;-23
2023/07/02 02:51:21;;;;;;;11.48;5.90;;;;;;;;;;5064513;28;43806;-23
2023/07/02 02:53:50;;;;;;;9.75;5.38;;;;;;;;;;5067534;28;20279;-23
2023/07/02 02:56:18;;;;;;;16.95;6.57;;;;;;;;;;5067092;28;40757;-23
2023/07/02 02:58:46;;;;;;;11.80;6.13;;;;;;;;;;5065874;28;41858;-23
2023/07/02 03:01:14;;;;;;;9.35;5.00;;;;;;;;;;5066069;28;42730;-23
2023/07/02 03:03:45;;;;;;;13.48;6.93;;;;;;;;;;5086056;28;41004;-23
2023/07/02 03:06:14;;;;;;;15.05;6.18;;;;;;;;;;5066255;28;41320;-23
2023/07/02 03:08:43;;;;;;;14.25;6.53;;;;;;;;;;5067604;28;40825;-23
2023/07/02 03:11:11;;;;;;;9.23;5.30;;;;;;;;;;5065435;28;41683;-23
2023/07/02 03:13:39;;;;;;;12.80;5.97;;;;;;;;;;5064611;28;42827;-23
2023/07/02 03:16:07;;;;;;;9.35;5.88;;;;;;;;;;5065387;28;40142;-23
2023/07/02 03:18:35;;;;;;;14.13;6.82;;;;;;;;;;5066936;28;42663;-24
2023/07/02 03:21:04;;;;;;;11.20;6.40;;;;;;;;;;5067449;28;42762;-23
2023/07/02 03:23:32;;;;;;;12.27;5.93;;;;;;;;;;5066873;28;40422;-23
2023/07/02 03:26:00;;;;;;;15.10;5.93;;;;;;;;;;5067121;28;43215;-23
2023/07/02 03:28:28;;;;;;;11.15;6.35;;;;;;;;;;5066923;28;43466;-23
2023/07/02 03:30:56;;;;;;;11.82;6.07;;;;;;;;;;5066972;28;42944;-23
2023/07/02 03:33:24;;;;;;;12.57;6.25;;;;;;;;;;5065644;28;43668;-23
2023/07/02 03:35:52;;;;;;;17.88;6.70;;;;;;;;;;5067194;28;40574;-23
2023/07/02 03:38:22;;;;;;;11.25;5.78;;;;;;;;;;5066430;28;42056;-23
2023/07/02 03:40:50;;;;;;;11.38;6.20;;;;;;;;;;5066489;28;43555;-23
2023/07/02 03:43:18;;;;;;;12.68;7.10;;;;;;;;;;5066671;28;39879;-23
2023/07/02 03:45:46;;;;;;;16.55;6.53;;;;;;;;;;5065845;28;42676;-23
2023/07/02 03:48:14;;;;;;;11.98;6.30;;;;;;;;;;5065056;28;42894;-23
2023/07/02 03:50:42;;;;;;;15.32;7.18;;;;;;;;;;5067005;28;43380;-23
2023/07/02 03:53:10;;;;;;;13.88;6.35;;;;;;;;;;5066498;28;43692;-23
2023/07/02 03:55:40;;;;;;;13.05;6.35;;;;;;;;;;5066379;28;40445;-23
2023/07/02 03:58:08;;;;;;;17.92;6.50;;;;;;;;;;5067338;28;42905;-24
2023/07/02 04:00:36;;;;;;;14.55;6.85;;;;;;;;;;5064269;28;43053;-23
2023/07/02 04:03:04;;;;;;;15.10;6.88;;;;;;;;;;5064935;28;38975;-23
2023/07/02 04:05:32;;;;;;;11.32;6.40;;;;;;;;;;5066421;28;43413;-23
2023/07/02 04:08:00;;;;;;;13.05;6.93;;;;;;;;;;5066123;28;44539;-23
2023/07/02 04:10:28;;;;;;;14.57;6.95;;;;;;;;;;5066246;28;40395;-23
2023/07/02 04:12:57;;;;;;;16.58;6.90;;;;;;;;;;5066524;28;44443;-23
2023/07/02 04:15:26;;;;;;;14.60;6.88;;;;;;;;;;5065779;28;40453;-23
2023/07/02 04:17:54;;;;;;;11.95;6.82;;;;;;;;;;5066550;28;43686;-23
2023/07/02 04:20:22;;;;;;;15.45;6.60;;;;;;;;;;5064356;28;43391;-23
2023/07/02 04:22:50;;;;;;;16.38;7.35;;;;;;;;;;5065969;28;41411;-23
2023/07/02 04:25:18;;;;;;;16.40;6.57;;;;;;;;;;5066497;28;42417;-23
2023/07/02 04:28:07;;;;;;;13.20;6.43;;;;;;;;;;5063454;28;43085;-23
2023/07/02 04:30:35;;;;;;;15.38;7.28;;;;;;;;;;5065549;28;42325;-23
2023/07/02 04:33:05;;;;;;;14.43;7.20;;;;;;;;;;5067122;28;42796;-23
2023/07/02 04:35:34;;;;;;;15.15;7.78;;;;;;;;;;5065413;28;40663;-23
2023/07/02 04:38:02;;;;;;;13.00;6.90;;;;;;;;;;5064386;28;41288;-23
2023/07/02 04:40:30;;;;;;;15.10;7.03;;;;;;;;;;5066011;28;43345;-23
2023/07/02 04:42:58;;;;;;;15.80;7.43;;;;;;;;;;5065626;28;40754;-23
2023/07/02 04:45:31;;;;;;;13.90;7.00;;;;;;;;;;5064948;28;43811;-23
2023/07/02 04:48:00;;;;;;;16.08;7.30;;;;;;;;;;5063307;28;43796;-23
2023/07/02 04:50:29;;;;;;;15.57;6.90;;;;;;;;;;5064956;28;40308;-23
2023/07/02 04:52:57;;;;;;;16.85;7.43;;;;;;;;;;5066000;28;42668;-23
2023/07/02 04:55:25;;;;;;;14.52;7.32;;;;;;;;;;5065438;28;43715;-23
2023/07/02 04:57:53;;;;;;;18.67;7.30;;;;;;;;;;5065093;28;43687;-23
2023/07/02 05:00:22;;;;;;;12.98;7.63;;;;;;;;;;5065675;28;44633;-23
2023/07/02 05:02:51;;;;;;;19.00;7.75;;;;;;;;;;5065972;28;40475;-23
2023/07/02 05:05:19;;;;;;;19.80;7.32;;;;;;;;;;5064611;28;42775;-24
2023/07/02 05:07:47;;;;;;;18.55;7.68;;;;;;;;;;5066225;28;44553;-23
2023/07/02 05:10:15;;;;;;;14.85;7.57;;;;;;;;;;5065308;28;41449;-23
2023/07/02 05:12:43;;;;;;;14.10;6.95;;;;;;;;;;5065462;28;42496;-23
2023/07/02 05:15:12;;;;;;;17.55;7.43;;;;;;;;;;5065258;28;43103;-23
2023/07/02 05:17:40;;;;;;;14.93;7.80;;;;;;;;;;5064848;28;41247;-23
2023/07/02 05:20:10;;;;;;;14.13;7.32;;;;;;;;;;5065506;28;43847;-23
2023/07/02 05:22:38;;;;;;;13.00;6.93;;;;;;;;;;5065175;28;40971;-22
2023/07/02 05:25:07;;;;;;;19.10;7.80;;;;;;;;;;5064975;28;42536;-22
2023/07/02 05:27:34;;;;;;;14.75;6.93;;;;;;;;;;5065219;28;43328;-22
2023/07/02 05:30:03;;;;;;;15.60;7.90;;;;;;;;;;5063899;28;39045;-23
2023/07/02 05:32:31;;;;;;;12.27;7.18;;;;;;;;;;5064046;28;43676;-22
2023/07/02 05:34:59;;;;;;;14.50;7.57;;;;;;;;;;5064779;28;43479;-23
2023/07/02 05:37:28;;;;;;;19.25;8.05;;;;;;;;;;5064929;28;40473;-23
2023/07/02 05:39:56;;;;;;;14.45;7.35;;;;;;;;;;5065302;28;42556;-22
2023/07/02 05:42:24;;;;;;;14.90;7.65;;;;;;;;;;5064534;28;40004;-22
2023/07/02 05:44:52;;;;;;;18.15;8.00;;;;;;;;;;5065419;28;43157;-23
2023/07/02 05:47:20;;;;;;;18.88;7.53;;;;;;;;;;5063842;28;43920;-22
2023/07/02 05:49:48;;;;;;;16.25;8.07;;;;;;;;;;5065238;28;40031;-23
2023/07/02 05:52:16;;;;;;;17.73;7.60;;;;;;;;;;5065810;28;42456;-23
2023/07/02 05:54:45;;;;;;;18.13;7.15;;;;;;;;;;5062954;28;41862;-23
2023/07/02 05:57:13;;;;;;;18.67;7.50;;;;;;;;;;5066097;28;40471;-23
2023/07/02 05:59:41;;;;;;;17.60;8.18;;;;;;;;;;5063712;28;42094;-22
2023/07/02 06:02:09;;;;;;;16.33;7.75;;;;;;;;;;5055218;28;41538;-22
2023/07/02 06:04:37;;;;;;;18.77;8.68;;;;;;;;;;5053436;28;43013;-22
2023/07/02 06:07:05;;;;;;;19.23;7.90;;;;;;;;;;5047790;28;43432;-22
2023/07/02 06:09:33;;;;;;;18.75;7.70;;;;;;;;;;5052673;28;41333;-23
2023/07/02 06:12:02;;;;;;;22.35;7.97;;;;;;;;;;5057323;28;42867;-22
2023/07/02 06:14:30;;;;;;;23.40;9.18;;;;;;;;;;5057048;28;44297;-22
2023/07/02 06:16:59;;;;;;;23.65;8.52;;;;;;;;;;5059268;28;39783;-23
2023/07/02 06:19:27;;;;;;;21.02;8.77;;;;;;;;;;5060229;28;43793;-22
2023/07/02 06:21:55;;;;;;;17.13;7.38;;;;;;;;;;5060642;28;42930;-23
2023/07/02 06:24:23;;;;;;;18.88;8.25;;;;;;;;;;5064587;28;43447;-22
2023/07/02 06:26:51;;;;;;;19.65;8.20;;;;;;;;;;5061586;28;43314;-22
2023/07/02 06:29:22;;;;;;;20.33;8.52;;;;;;;;;;5066930;28;40973;-22
2023/07/02 06:31:50;;;;;;;18.67;8.27;;;;;;;;;;5061397;28;43301;-22
2023/07/02 06:34:18;;;;;;;14.27;7.25;;;;;;;;;;5066651;28;43846;-22
2023/07/02 06:36:46;;;;;;;21.60;8.18;;;;;;;;;;5065556;28;40663;-22
2023/07/02 06:39:14;;;;;;;18.92;8.05;;;;;;;;;;5068138;28;42177;-23
2023/07/02 06:41:42;;;;;;;16.73;7.82;;;;;;;;;;5067288;28;43819;-22
2023/07/02 06:44:10;;;;;;;22.20;8.55;;;;;;;;;;5064005;28;39132;-22
2023/07/02 06:46:39;;;;;;;16.75;8.15;;;;;;;;;;5062718;28;43592;-22
2023/07/02 06:49:07;;;;;;;19.77;7.82;;;;;;;;;;5064993;28;41223;-23
2023/07/02 06:51:36;;;;;;;14.18;7.28;;;;;;;;;;5059580;28;42951;-23
2023/07/02 06:54:04;;;;;;;16.15;7.43;;;;;;;;;;5060009;28;43872;-23
2023/07/02 06:56:32;;;;;;;17.25;7.65;;;;;;;;;;5054130;28;39963;-22
2023/07/02 06:59:00;;;;;;;18.63;7.35;;;;;;;;;;5067324;28;43871;-23
2023/07/02 07:01:28;;;;;;;16.17;7.30;;;;;;;;;;5067255;28;41837;-23
2023/07/02 07:03:57;;;;;;;17.65;6.90;;;;;;;;;;5067266;28;41475;-22
2023/07/02 07:06:25;;;;;;;16.10;7.80;;;;;;;;;;5067833;28;42845;-23
2023/07/02 07:08:53;;;;;;;16.95;7.35;;;;;;;;;;5067609;28;40665;-23
2023/07/02 07:11:21;;;;;;;15.77;7.60;;;;;;;;;;5065963;28;42692;-23
2023/07/02 07:13:49;;;;;;;20.38;8.18;;;;;;;;;;5068132;28;43696;-22
2023/07/02 07:16:17;;;;;;;17.13;7.70;;;;;;;;;;5066720;28;41452;-23
2023/07/02 07:18:45;;;;;;;16.80;7.13;;;;;;;;;;5066219;28;43618;-23
2023/07/02 07:21:14;;;;;;;21.52;7.93;;;;;;;;;;5066479;28;43025;-23
2023/07/02 07:23:42;;;;;;;17.00;8.05;;;;;;;;;;5066960;28;41257;-23
2023/07/02 07:26:10;;;;;;;13.40;7.40;;;;;;;;;;5066511;28;43208;-23
2023/07/02 07:28:38;;;;;;;19.88;6.82;;;;;;;;;;5067379;28;43021;-23
2023/07/02 07:31:06;;;;;;;17.13;6.68;;;;;;;;;;5066946;28;43240;-23
2023/07/02 07:33:34;;;;;;;14.20;6.55;;;;;;;;;;5065542;28;44022;-23
2023/07/02 07:36:02;;;;;;;16.67;6.55;;;;;;;;;;5067526;28;41574;-22
2023/07/02 07:38:32;;;;;;;16.38;6.85;;;;;;;;;;5066618;28;42376;-23
2023/07/02 07:41:00;;;;;;;16.42;7.40;;;;;;;;;;5067323;28;43455;-23
2023/07/02 07:43:28;;;;;;;17.00;7.05;;;;;;;;;;5058981;28;40499;-23
2023/07/02 07:45:55;;;;;;;13.88;6.38;;;;;;;;;;5058644;28;42662;-23
2023/07/02 07:48:23;;;;;;;16.10;7.20;;;;;;;;;;5066404;28;43269;-23
2023/07/02 07:50:52;;;;;;;18.23;7.28;;;;;;;;;;5066833;28;41641;-23
2023/07/02 07:53:19;;;;;;;14.23;6.72;;;;;;;;;;5063531;28;42766;-23
2023/07/02 07:55:49;;;;;;;18.00;7.35;;;;;;;;;;5066976;28;40715;-23
2023/07/02 07:58:17;;;;;;;11.98;6.50;;;;;;;;;;5066597;28;43083;-23
2023/07/02 08:00:45;;;;;;;18.38;7.22;;;;;;;;;;5057129;28;43019;-23
2023/07/02 08:03:13;;;;;;;14.38;7.32;;;;;;;;;;5063445;28;40491;-23
2023/07/02 08:05:41;;;;;;;18.30;7.13;;;;;;;;;;5065873;28;42620;-23
2023/07/02 08:08:09;;;;;;;18.73;7.07;;;;;;;;;;5066200;28;43517;-23
2023/07/02 08:10:37;;;;;;;15.32;6.97;;;;;;;;;;5054970;28;40500;-23
2023/07/02 08:13:07;;;;;;;14.75;6.75;;;;;;;;;;5066326;28;43734;-23
2023/07/02 08:15:35;;;;;;;18.52;7.55;;;;;;;;;;5065509;28;40492;-23
2023/07/02 08:18:03;;;;;;;20.63;7.07;;;;;;;;;;5066557;28;42878;-23
2023/07/02 08:20:31;;;;;;;20.13;7.00;;;;;;;;;;5065763;28;43803;-23
2023/07/02 08:22:59;;;;;;;12.75;7.10;;;;;;;;;;5065914;28;40293;-22
2023/07/02 08:25:28;;;;;;;16.02;6.40;;;;;;;;;;5066098;28;43805;-23
2023/07/02 08:27:56;;;;;;;14.48;6.90;;;;;;;;;;5066238;28;43344;-23
2023/07/02 08:30:26;;;;;;;17.27;6.72;;;;;;;;;;5065246;28;40374;-24
2023/07/02 08:32:55;;;;;;;17.20;6.85;;;;;;;;;;5066755;28;42846;-23
2023/07/02 08:35:23;;;;;;;12.55;5.97;;;;;;;;;;5065247;28;40503;-22
2023/07/02 08:37:51;;;;;;;14.20;6.53;;;;;;;;;;5066428;28;42925;-23
2023/07/02 08:40:19;;;;;;;14.52;7.57;;;;;;;;;;5064480;28;43437;-23
2023/07/02 08:42:48;;;;;;;14.63;6.40;;;;;;;;;;5080593;28;39044;-24
2023/07/02 08:45:16;;;;;;;13.60;5.97;;;;;;;;;;5066220;28;42824;-23
2023/07/02 08:47:45;;;;;;;15.52;6.30;;;;;;;;;;5066490;28;44483;-23
2023/07/02 08:50:13;;;;;;;11.02;6.13;;;;;;;;;;5065659;28;40635;-23
2023/07/02 08:52:42;;;;;;;11.27;6.57;;;;;;;;;;5065989;28;42323;-23
2023/07/02 08:55:10;;;;;;;10.45;5.75;;;;;;;;;;5065880;28;43980;-23
2023/07/02 08:57:38;;;;;;;15.13;6.10;;;;;;;;;;5064516;28;42286;-23
2023/07/02 09:00:09;;;;;;;11.23;5.72;;;;;;;;;;5066130;28;43315;-23
2023/07/02 09:02:37;;;;;;;12.73;6.32;;;;;;;;;;5062109;28;41442;-23
2023/07/02 09:05:07;;;;;;;11.38;5.55;;;;;;;;;;5064962;28;42476;-23
2023/07/02 09:07:44;;;;;;;11.15;5.68;;;;;;;;;;5065199;28;43674;-23
2023/07/02 09:10:12;;;;;;;9.63;5.30;;;;;;;;;;5061187;28;41144;-23
2023/07/02 09:12:40;;;;;;;10.85;5.40;;;;;;;;;;5064756;28;43807;-23
2023/07/02 09:15:08;;;;;;;10.30;5.53;;;;;;;;;;5064624;28;43870;-23
2023/07/02 09:17:36;;;;;;;16.10;5.97;;;;;;;;;;5064783;28;40691;-22
2023/07/02 09:20:07;;;;;;;17.85;5.82;;;;;;;;;;5065758;28;44431;-22
2023/07/02 09:22:36;;;;;;;12.77;5.68;;;;;;;;;;5065519;28;40171;-23
2023/07/02 09:25:05;;;;;;;10.07;5.10;;;;;;;;;;5044700;28;43618;-25
2023/07/02 09:27:36;;;;;;;11.30;5.50;;;;;;;;;;5066820;28;43559;-26
2023/07/02 09:30:08;;;;;;;10.27;5.60;;;;;;;;;;5059721;28;41256;-25
2023/07/02 09:32:36;;;;;;;8.60;5.00;;;;;;;;;;5061628;28;42659;-25
2023/07/02 09:35:04;;;;;;;14.38;5.78;;;;;;;;;;5062719;28;44440;-25
2023/07/02 09:37:32;;;;;;;9.60;5.03;;;;;;;;;;5061831;28;40447;-26
2023/07/02 09:40:05;;;;;;;12.48;5.10;;;;;;;;;;5063179;28;42197;-25
2023/07/02 09:42:34;;;;;;;15.10;5.50;;;;;;;;;;5061701;28;39305;-24
2023/07/02 09:45:02;;;;;;;13.18;5.10;;;;;;;;;;5067924;28;42765;-22
2023/07/02 09:47:30;;;;;;;15.52;4.93;;;;;;;;;;5065170;28;43516;-22
2023/07/02 09:49:58;;;;;;;9.88;4.75;;;;;;;;;;5068389;28;41133;-23
2023/07/02 09:52:27;;;;;;;12.18;4.68;;;;;;;;;;5067459;28;43729;-23
2023/07/02 09:54:55;;;;;;;8.75;4.38;;;;;;;;;;5067974;28;43334;-23
2023/07/02 09:57:24;;;;;;;10.82;5.07;;;;;;;;;;5055761;28;41509;-23
2023/07/02 09:59:52;;;;;;;13.30;5.25;;;;;;;;;;5068266;28;43069;-23
2023/07/02 10:02:20;;;;;;;12.48;5.10;;;;;;;;;;5066619;28;32749;-23
2023/07/02 10:04:54;;;;;;;8.00;4.90;;;;;;;;;;5068898;28;42489;-23
2023/07/02 10:07:29;;;;;;;8.95;4.88;;;;;;;;;;5064621;28;44449;-23
2023/07/02 10:09:57;;;;;;;16.50;5.22;;;;;;;;;;5065498;28;40376;-23
2023/07/02 10:12:26;;;;;;;10.00;4.88;;;;;;;;;;5067635;28;42970;-23
2023/07/02 10:14:54;;;;;;;11.02;5.05;;;;;;;;;;5054286;28;44046;-23
2023/07/02 10:17:27;;;;;;;8.40;4.57;;;;;;;;;;5068133;28;41159;-23
2023/07/02 10:19:55;;;;;;;8.35;4.38;;;;;;;;;;5067965;28;42688;-23
2023/07/02 10:22:23;;;;;;;10.15;4.82;;;;;;;;;;5068051;28;43880;-23
2023/07/02 10:24:53;;;;;;;9.35;5.13;;;;;;;;;;5067962;28;42925;-23
2023/07/02 10:27:21;;;;;;;9.52;4.97;;;;;;;;;;5067169;28;43350;-23
2023/07/02 10:29:53;;;;;;;10.10;4.70;;;;;;;;;;5067855;28;40267;-23
2023/07/02 10:32:28;;;;;;;8.90;5.43;;;;;;;;;;5064428;28;43416;-23
2023/07/02 10:34:58;;;;;;;11.27;4.72;;;;;;;;;;5065455;28;44280;-22
2023/07/02 10:37:26;;;;;;;10.77;4.43;;;;;;;;;;5067336;28;40878;-23
2023/07/02 10:39:54;;;;;;;8.23;4.35;;;;;;;;;;5067880;28;43704;-24
2023/07/02 10:42:22;;;;;;;11.45;4.28;;;;;;;;;;5066735;28;43615;-24
2023/07/02 10:44:51;;;;;;;8.55;4.47;;;;;;;;;;5067467;28;40342;-24
2023/07/02 10:47:20;;;;;;;12.35;5.28;;;;;;;;;;5064643;28;43820;-24
2023/07/02 10:49:48;;;;;;;11.82;4.63;;;;;;;;;;5067872;28;40932;-24
2023/07/02 10:52:16;;;;;;;8.55;4.43;;;;;;;;;;5067917;28;43394;-23
2023/07/02 10:54:44;;;;;;;6.93;4.13;;;;;;;;;;5066930;28;44395;-23
2023/07/02 10:57:13;;;;;;;7.30;4.40;;;;;;;;;;5067350;28;40838;-23
2023/07/02 10:59:41;;;;;;;7.68;4.43;;;;;;;;;;5067613;28;43188;-23
2023/07/02 11:02:10;;;;;;;7.43;4.63;;;;;;;;;;5066933;28;43657;-24
2023/07/02 11:04:39;;;;;;;13.40;4.60;;;;;;;;;;5066722;28;40605;-24
2023/07/02 11:07:07;;;;;;;8.43;3.67;;;;;;;;;;5068096;28;42569;-23
2023/07/02 11:09:35;;;;;;;7.68;4.30;;;;;;;;;;5066415;28;40027;-23
2023/07/02 11:12:03;;;;;;;10.52;3.47;;;;;;;;;;5067614;28;42785;-23
2023/07/02 11:14:31;;;;;;;7.60;3.97;;;;;;;;;;5066419;28;44392;-23
2023/07/02 11:17:02;;;;;;;7.40;3.88;;;;;;;;;;5066991;28;40273;-23
2023/07/02 11:19:30;;;;;;;6.35;3.45;;;;;;;;;;5067315;28;42939;-23
2023/07/02 11:21:59;;;;;;;8.15;3.63;;;;;;;;;;5066593;28;44536;-23
2023/07/02 11:24:27;;;;;;;7.13;3.40;;;;;;;;;;5065722;28;41279;-23
2023/07/02 11:26:55;;;;;;;9.32;3.95;;;;;;;;;;5067516;28;42671;-23
2023/07/02 11:29:23;;;;;;;6.78;3.58;;;;;;;;;;5067180;28;44631;-24
2023/07/02 11:31:51;;;;;;;8.68;3.90;;;;;;;;;;5067056;28;42437;-23
2023/07/02 11:34:19;;;;;;;9.95;4.05;;;;;;;;;;5066840;28;43410;-23
2023/07/02 11:36:53;;;;;;;10.07;3.70;;;;;;;;;;5067225;28;41317;-24
2023/07/02 11:39:23;;;;;;;10.35;3.67;;;;;;;;;;5063523;28;43365;-24
2023/07/02 11:41:51;;;;;;;6.47;3.75;;;;;;;;;;5066999;28;43953;-24
2023/07/02 11:44:19;;;;;;;12.63;4.40;;;;;;;;;;5065534;28;41288;-23
2023/07/02 11:46:47;;;;;;;7.75;3.85;;;;;;;;;;5066839;28;42686;-23
2023/07/02 11:49:15;;;;;;;9.93;4.07;;;;;;;;;;5066586;28;43461;-24
2023/07/02 11:51:48;;;;;;;5.78;3.90;;;;;;;;;;5066590;28;40833;-24
2023/07/02 11:54:16;;;;;;;9.02;3.88;;;;;;;;;;5063617;28;43726;-24
2023/07/02 11:56:45;;;;;;;6.28;3.95;;;;;;;;;;5066941;28;41375;-24
2023/07/02 11:59:13;;;;;;;8.35;4.47;;;;;;;;;;5066594;28;42860;-24
2023/07/02 12:01:41;;;;;;;10.05;4.13;;;;;;;;;;5066637;28;44993;-27
2023/07/02 12:04:11;;;;;;;8.30;4.10;;;;;;;;;;5066181;28;41074;-25
2023/07/02 12:06:40;;;;;;;7.82;3.53;;;;;;;;;;5064390;28;42841;-25
2023/07/02 12:09:07;;;;;;;7.45;3.45;;;;;;;;;;5064503;28;42803;-27
2023/07/02 12:11:35;;;;;;;6.50;3.90;;;;;;;;;;5066738;28;41348;-24
2023/07/02 12:14:05;;;;;;;10.18;3.78;;;;;;;;;;5065468;28;44590;-25
2023/07/02 12:16:33;;;;;;;6.90;3.55;;;;;;;;;;5064273;28;40623;-24
2023/07/02 12:19:01;;;;;;;5.47;3.15;;;;;;;;;;5066195;28;43222;-24
2023/07/02 12:21:29;;;;;;;9.43;3.92;;;;;;;;;;5065225;28;44144;-25
2023/07/02 12:23:57;;;;;;;8.70;3.60;;;;;;;;;;5066765;28;41199;-23
2023/07/02 12:26:25;;;;;;;6.70;3.35;;;;;;;;;;5065823;28;43482;-24
2023/07/02 12:28:52;;;;;;;7.25;3.75;;;;;;;;;;5065039;28;44122;-24
2023/07/02 12:31:22;;;;;;;6.93;3.65;;;;;;;;;;5066093;28;41505;-33
2023/07/02 12:33:50;;;;;;;6.63;3.25;;;;;;;;;;5065929;28;43008;-26
2023/07/02 12:36:18;;;;;;;6.50;3.38;;;;;;;;;;5065342;28;39982;-25
2023/07/02 12:38:46;;;;;;;7.22;3.00;;;;;;;;;;5066390;28;42566;-23
2023/07/02 12:41:14;;;;;;;7.45;3.40;;;;;;;;;;5066038;28;43398;-24
2023/07/02 12:43:42;;;;;;;9.38;3.67;;;;;;;;;;5065131;28;42527;-24
2023/07/02 12:46:10;;;;;;;6.35;3.40;;;;;;;;;;5064987;28;42745;-24
2023/07/02 12:48:39;;;;;;;10.18;3.90;;;;;;;;;;5064660;28;44332;-25
2023/07/02 12:51:07;;;;;;;6.28;3.42;;;;;;;;;;5066131;28;40467;-23
2023/07/02 12:53:35;;;;;;;9.95;3.88;;;;;;;;;;5058663;28;43664;-26
2023/07/02 12:56:03;;;;;;;6.75;3.22;;;;;;;;;;5061058;28;42585;-23
2023/07/02 12:58:31;;;;;;;8.38;3.78;;;;;;;;;;5064851;28;43304;-26
2023/07/02 13:00:59;;;;;;;8.38;3.40;;;;;;;;;;5060307;28;43272;-24
2023/07/02 13:03:31;;;;;;;6.10;3.35;;;;;;;;;;5063709;28;40637;-25
2023/07/02 13:06:00;;;;;;;9.35;3.42;;;;;;;;;;5062182;28;43069;-25
2023/07/02 13:08:28;;;;;;;10.43;3.90;;;;;;;;;;5063810;28;42889;-26
2023/07/02 13:10:56;;;;;;;8.98;4.43;;;;;;;;;;5065368;28;41208;-26
2023/07/02 13:13:24;;;;;;;9.40;3.38;;;;;;;;;;5062009;28;41749;-24
2023/07/02 13:15:55;;;;;;;6.82;3.75;;;;;;;;;;5053799;28;44470;-26
2023/07/02 13:18:23;;;;;;;6.93;3.53;;;;;;;;;;5055747;28;40333;-26
2023/07/02 13:20:51;;;;;;;5.57;3.25;;;;;;;;;;5065609;28;43738;-23
2023/07/02 13:23:21;;;;;;;5.93;3.60;;;;;;;;;;5064602;28;41247;-27
2023/07/02 13:25:49;;;;;;;7.90;3.47;;;;;;;;;;5065272;28;42747;-24
2023/07/02 13:28:17;;;;;;;8.25;3.88;;;;;;;;;;5062309;28;44412;-24
2023/07/02 13:30:45;;;;;;;5.78;3.55;;;;;;;;;;5064644;28;40888;-25
2023/07/02 13:33:13;;;;;;;7.63;3.85;;;;;;;;;;5064910;28;42698;-25
2023/07/02 13:35:43;;;;;;;8.88;3.80;;;;;;;;;;5065134;28;43423;-26
2023/07/02 13:38:11;;;;;;;6.93;3.75;;;;;;;;;;5065321;28;41767;-27
2023/07/02 13:40:40;;;;;;;8.68;3.42;;;;;;;;;;5065217;28;42742;-24
2023/07/02 13:43:08;;;;;;;12.55;4.47;;;;;;;;;;5064665;28;40963;-27
2023/07/02 13:45:36;;;;;;;9.52;3.88;;;;;;;;;;5063682;28;42730;-29
2023/07/02 13:48:05;;;;;;;8.65;4.05;;;;;;;;;;5065233;28;44314;-24
2023/07/02 13:50:33;;;;;;;8.50;3.88;;;;;;;;;;5062716;28;39180;-24
2023/07/02 13:53:01;;;;;;;8.82;3.53;;;;;;;;;;5064649;28;42700;-24
2023/07/02 13:55:30;;;;;;;7.97;4.47;;;;;;;;;;5064488;28;43527;-25
2023/07/02 13:58:00;;;;;;;9.38;3.88;;;;;;;;;;5063854;28;41552;-25
2023/07/02 14:00:29;;;;;;;9.02;3.97;;;;;;;;;;5061643;28;44478;-26
2023/07/02 14:02:57;;;;;;;8.10;4.20;;;;;;;;;;5065126;28;43564;-25
2023/07/02 14:05:25;;;;;;;8.80;3.97;;;;;;;;;;5063556;28;42841;-29
2023/07/02 14:07:53;;;;;;;9.73;3.78;;;;;;;;;;5064564;28;44558;-25
2023/07/02 14:10:21;;;;;;;11.30;3.65;;;;;;;;;;5064098;28;41432;-26
2023/07/02 14:12:49;;;;;;;9.45;4.32;;;;;;;;;;5064531;28;42852;-25
2023/07/02 14:15:17;;;;;;;8.45;3.60;;;;;;;;;;5064105;28;44085;-26
2023/07/02 14:17:47;;;;;;;7.60;3.67;;;;;;;;;;5065205;28;40795;-25
2023/07/02 14:20:15;;;;;;;13.27;4.05;;;;;;;;;;5063812;28;42795;-27
2023/07/02 14:22:43;;;;;;;5.35;3.05;;;;;;;;;;5064550;28;43780;-26
2023/07/02 14:25:14;;;;;;;7.57;3.92;;;;;;;;;;5061301;28;42661;-27
2023/07/02 14:27:59;;;;;;;10.98;4.40;;;;;;;;;;5063039;28;43325;-26
2023/07/02 14:30:27;;;;;;;6.15;3.53;;;;;;;;;;5066834;28;40191;-28
2023/07/02 14:32:56;;;;;;;8.80;3.60;;;;;;;;;;5067921;28;42311;-25
2023/07/02 14:35:27;;;;;;;7.30;3.70;;;;;;;;;;5067391;28;43557;-25
2023/07/02 14:37:55;;;;;;;6.95;4.05;;;;;;;;;;5064969;28;40016;-26
2023/07/02 14:40:23;;;;;;;7.18;3.78;;;;;;;;;;5066918;28;42810;-25
2023/07/02 14:42:51;;;;;;;8.93;4.07;;;;;;;;;;5067872;28;43945;-24